Time;durP1;ratioP1;P1;durP2;ratioP2;P2;SDS_P1;SDS_P2;PMS_P1;PMS_P2;Temp;Humidity;BMP_temperature;BMP_pressure;BME280_temperature;BME280_humidity;BME280_pressure;Samples;Min_cycle;Max_cycle;Signal;HPM_P1;HPM_P2
2022/05/08 00:00:48;;;;;;;;;;;;;;;17.25;57.44;102912.69;6157991;23;19920;-77
2022/05/08 00:03:14;;;;;;;;;;;;;;;17.26;57.93;102913.56;6158055;23;19908;-78
2022/05/08 00:05:39;;;;;;;;;;;;;;;17.24;58.08;102920.44;6158628;23;19908;-78
2022/05/08 00:08:05;;;;;;;;;;;;;;;17.26;58.07;102918.75;6158739;23;19916;-77
2022/05/08 00:10:30;;;;;;;;;;;;;;;17.20;57.46;102919.50;6158658;23;19916;-77
2022/05/08 00:12:55;;;;;;;;;;;;;;;17.13;58.10;102911.50;6158486;23;19909;-77
2022/05/08 00:15:20;;;;;;;;;;;;;;;17.09;57.66;102915.72;6131909;23;19920;-77
2022/05/08 00:17:46;;;;;;;;;;;;;;;17.07;57.21;102920.00;6158144;23;19908;-78
2022/05/08 00:20:12;;;;;;;;;;;;;;;17.08;57.74;102919.19;6132288;23;19913;-78
2022/05/08 00:22:42;;;;;;;;;;;;;;;17.06;57.62;102910.47;6158060;23;19920;-78
2022/05/08 00:25:07;;;;;;;;;;;;;;;17.14;57.15;102915.88;6157976;23;19909;-78
2022/05/08 00:27:33;;;;;;;;;;;;;;;17.13;57.25;102916.69;6132324;23;19999;-77
2022/05/08 00:29:58;;;;;;;;;;;;;;;17.11;57.18;102915.78;6157944;23;19919;-77
2022/05/08 00:32:23;;;;;;;;;;;;;;;17.11;57.29;102913.16;6158163;23;19913;-77
2022/05/08 00:34:49;;;;;;;;;;;;;;;17.08;57.84;102915.72;6131912;23;19913;-76
2022/05/08 00:37:14;;;;;;;;;;;;;;;17.03;57.66;102923.41;6157951;23;19917;-77
2022/05/08 00:39:39;;;;;;;;;;;;;;;17.02;56.75;102916.41;6157825;23;19913;-78
2022/05/08 00:42:05;;;;;;;;;;;;;;;17.04;58.35;102923.41;6158426;23;20001;-77
2022/05/08 00:44:30;;;;;;;;;;;;;;;17.02;57.34;102919.88;6158153;23;19912;-78
2022/05/08 00:46:55;;;;;;;;;;;;;;;16.98;57.66;102923.25;6131954;23;19932;-78
2022/05/08 00:49:20;;;;;;;;;;;;;;;17.01;56.62;102918.16;6157931;23;20376;-77
2022/05/08 00:51:48;;;;;;;;;;;;;;;17.03;56.85;102920.78;6131675;23;20398;-78
2022/05/08 00:54:14;;;;;;;;;;;;;;;17.00;57.21;102926.78;6157684;23;19917;-78
2022/05/08 00:56:40;;;;;;;;;;;;;;;16.99;57.61;102921.56;6156079;23;19915;-78
2022/05/08 00:59:05;;;;;;;;;;;;;;;16.98;57.56;102919.78;6157664;23;19965;-78
2022/05/08 01:01:30;;;;;;;;;;;;;;;16.97;56.64;102921.50;6160568;23;19948;-83
2022/05/08 01:03:55;;;;;;;;;;;;;;;16.95;56.90;102917.97;6138392;23;19971;-83
2022/05/08 01:06:21;;;;;;;;;;;;;;;16.99;56.57;102913.75;6167478;23;19919;-83
2022/05/08 01:08:48;;;;;;;;;;;;;;;16.98;56.86;102912.84;6136746;23;19913;-83
2022/05/08 01:11:13;;;;;;;;;;;;;;;16.97;56.51;102905.91;6134115;23;19943;-83
2022/05/08 01:13:39;;;;;;;;;;;;;;;16.93;56.22;102905.78;6159860;23;19909;-83
2022/05/08 01:16:08;;;;;;;;;;;;;;;16.93;56.15;102914.47;6135802;23;19908;-83
2022/05/08 01:18:33;;;;;;;;;;;;;;;16.94;56.19;102908.44;6160568;23;20396;-82
2022/05/08 01:20:59;;;;;;;;;;;;;;;16.94;56.96;102910.13;6135566;23;19921;-82
2022/05/08 01:23:24;;;;;;;;;;;;;;;16.93;56.88;102906.66;6134795;23;19912;-83
2022/05/08 01:25:53;;;;;;;;;;;;;;;16.96;57.20;102904.16;6136257;23;19935;-82
2022/05/08 01:28:20;;;;;;;;;;;;;;;16.98;55.67;102905.03;6135812;23;20211;-82
2022/05/08 01:30:46;;;;;;;;;;;;;;;16.97;56.54;102907.63;6134848;23;19944;-83
2022/05/08 01:33:11;;;;;;;;;;;;;;;16.94;55.81;102905.84;6158623;23;19908;-85
2022/05/08 01:35:37;;;;;;;;;;;;;;;16.98;55.75;102906.78;6132536;23;19912;-82
2022/05/08 01:38:03;;;;;;;;;;;;;;;17.02;55.28;102901.69;6159571;23;19916;-83
2022/05/08 01:40:30;;;;;;;;;;;;;;;17.00;55.62;102911.16;6133348;23;19940;-83
2022/05/08 01:42:55;;;;;;;;;;;;;;;16.90;55.13;102911.78;6159356;23;19919;-82
2022/05/08 01:45:20;;;;;;;;;;;;;;;16.88;55.49;102910.88;6160506;23;19909;-82
2022/05/08 01:50:29;;;;;;;;;;;;;;;16.91;54.94;102917.88;6138269;23;19919;-82
2022/05/08 01:52:55;;;;;;;;;;;;;;;16.83;54.75;102907.25;6159701;23;19940;-82
2022/05/08 01:55:20;;;;;;;;;;;;;;;16.80;56.77;102914.97;6134130;23;19951;-82
2022/05/08 01:57:46;;;;;;;;;;;;;;;16.81;55.05;102917.63;6131461;23;19927;-77
2022/05/08 02:00:11;;;;;;;;;;;;;;;16.81;55.04;102919.31;6157583;23;19909;-77
2022/05/08 02:02:37;;;;;;;;;;;;;;;16.81;54.45;102909.81;6131468;23;19959;-77
2022/05/08 02:05:03;;;;;;;;;;;;;;;16.82;54.67;102919.38;6131164;23;19915;-77
2022/05/08 02:07:28;;;;;;;;;;;;;;;16.86;54.91;102920.34;6157276;23;19917;-77
2022/05/08 02:09:55;;;;;;;;;;;;;;;16.86;54.66;102923.81;6156946;23;19912;-77
2022/05/08 02:12:20;;;;;;;;;;;;;;;16.89;54.65;102916.94;6157500;23;19909;-77
2022/05/08 02:14:46;;;;;;;;;;;;;;;16.92;54.80;102917.00;6157243;23;19920;-78
2022/05/08 02:17:11;;;;;;;;;;;;;;;16.88;54.18;102925.59;6130960;23;19912;-78
2022/05/08 02:19:36;;;;;;;;;;;;;;;16.86;54.29;102917.75;6156984;23;19956;-78
2022/05/08 02:22:02;;;;;;;;;;;;;;;16.80;53.95;102917.56;6156990;23;19956;-77
2022/05/08 02:24:27;;;;;;;;;;;;;;;16.79;54.11;102918.41;6156747;23;19980;-77
2022/05/08 02:26:52;;;;;;;;;;;;;;;16.77;54.83;102918.34;6157056;23;19909;-78
2022/05/08 02:29:18;;;;;;;;;;;;;;;16.75;54.22;102913.94;6160932;23;20003;-77
2022/05/08 02:31:43;;;;;;;;;;;;;;;16.73;54.63;102910.44;6132480;23;19939;-78
2022/05/08 02:34:09;;;;;;;;;;;;;;;16.75;54.29;102919.16;6157543;23;19909;-78
2022/05/08 02:36:34;;;;;;;;;;;;;;;16.75;53.98;102911.34;6130864;23;19992;-77
2022/05/08 02:38:59;;;;;;;;;;;;;;;16.79;54.29;102913.19;6156945;23;19912;-77
2022/05/08 02:41:25;;;;;;;;;;;;;;;16.83;54.35;102910.75;6130909;23;19913;-77
2022/05/08 02:43:50;;;;;;;;;;;;;;;16.80;53.74;102918.44;6106532;23;19920;-77
2022/05/08 02:46:15;;;;;;;;;;;;;;;16.79;54.28;102914.06;6157128;23;19909;-77
2022/05/08 02:48:41;;;;;;;;;;;;;;;16.85;54.00;102918.56;6156839;23;19912;-78
2022/05/08 02:51:07;;;;;;;;;;;;;;;16.83;53.90;102912.44;6130415;23;20322;-77
2022/05/08 02:53:33;;;;;;;;;;;;;;;16.85;53.72;102919.47;6130494;23;19908;-78
2022/05/08 02:58:41;;;;;;;;;;;;;;;16.81;53.94;102924.53;6133428;23;20010;-78
2022/05/08 03:01:07;;;;;;;;;;;;;;;16.82;53.85;102924.56;6155117;23;19917;-78
2022/05/08 03:03:32;;;;;;;;;;;;;;;16.86;53.56;102923.81;6155562;23;19909;-78
2022/05/08 03:05:58;;;;;;;;;;;;;;;16.84;53.76;102927.22;6155545;23;20277;-78
2022/05/08 03:08:23;;;;;;;;;;;;;;;16.82;53.65;102921.97;6129232;23;20309;-77
2022/05/08 03:13:35;;;;;;;;;;;;;;;16.83;53.50;102931.56;6162062;23;19959;-81
2022/05/08 03:16:00;;;;;;;;;;;;;;;16.82;53.67;102932.38;6136859;23;19961;-82
2022/05/08 03:18:25;;;;;;;;;;;;;;;16.78;53.65;102934.81;6113186;23;19919;-82
2022/05/08 03:20:50;;;;;;;;;;;;;;;16.82;53.41;102936.69;6136759;23;20006;-82
2022/05/08 03:23:16;;;;;;;;;;;;;;;16.82;53.91;102936.69;6166553;23;19912;-83
2022/05/08 03:25:42;;;;;;;;;;;;;;;16.85;53.72;102935.06;6117240;23;19920;-83
2022/05/08 03:28:08;;;;;;;;;;;;;;;16.88;53.62;102938.59;6139311;23;20318;-82
2022/05/08 03:30:33;;;;;;;;;;;;;;;16.85;53.41;102940.28;6137339;23;20000;-82
2022/05/08 03:33:01;;;;;;;;;;;;;;;16.86;53.55;102943.75;6134101;23;19904;-82
2022/05/08 03:35:26;;;;;;;;;;;;;;;16.83;53.24;102938.44;6159693;23;19916;-83
2022/05/08 03:37:52;;;;;;;;;;;;;;;16.86;53.32;102946.34;6133751;23;19917;-83
2022/05/08 03:40:17;;;;;;;;;;;;;;;16.85;53.71;102949.78;6160619;23;19908;-82
2022/05/08 03:42:42;;;;;;;;;;;;;;;16.87;53.37;102945.50;6161031;23;19917;-82
2022/05/08 03:45:08;;;;;;;;;;;;;;;16.86;53.24;102952.44;6135581;23;19913;-82
2022/05/08 03:47:33;;;;;;;;;;;;;;;16.85;53.38;102949.78;6135363;23;19909;-82
2022/05/08 03:49:58;;;;;;;;;;;;;;;16.86;53.42;102944.63;6109747;23;19912;-83
2022/05/08 03:52:24;;;;;;;;;;;;;;;16.84;53.09;102954.09;6141262;23;19917;-83
2022/05/08 03:54:49;;;;;;;;;;;;;;;16.82;53.28;102953.19;6135178;23;19963;-78
2022/05/08 03:57:14;;;;;;;;;;;;;;;16.81;53.29;102953.13;6053323;23;1816051;-78
2022/05/08 03:59:39;;;;;;;;;;;;;;;16.86;53.42;102948.94;6158543;23;20245;-77
2022/05/08 04:02:05;;;;;;;;;;;;;;;16.80;52.76;102943.56;6158145;23;19913;-78
2022/05/08 04:04:30;;;;;;;;;;;;;;;16.75;52.99;102945.16;6132053;23;19919;-77
2022/05/08 04:06:55;;;;;;;;;;;;;;;16.79;53.38;102949.59;6132175;23;19913;-77
2022/05/08 04:09:21;;;;;;;;;;;;;;;16.81;52.94;102951.44;6158212;23;19935;-78
2022/05/08 04:11:46;;;;;;;;;;;;;;;16.80;52.50;102952.25;6160520;23;19920;-82
2022/05/08 04:14:12;;;;;;;;;;;;;;;16.84;52.75;102953.22;6110498;23;19912;-82
2022/05/08 04:16:37;;;;;;;;;;;;;;;16.85;52.97;102947.16;6161140;23;19916;-82
2022/05/08 04:19:03;;;;;;;;;;;;;;;16.84;52.54;102950.63;6159482;23;19909;-83
2022/05/08 04:21:28;;;;;;;;;;;;;;;16.84;52.91;102953.22;6133890;23;19917;-82
2022/05/08 04:26:37;;;;;;;;;;;;;;;16.81;52.42;102959.22;6161554;23;20249;-82
2022/05/08 04:29:03;;;;;;;;;;;;;;;16.78;52.55;102958.22;6160630;23;19913;-82
2022/05/08 04:31:29;;;;;;;;;;;;;;;16.82;52.59;102963.56;6160451;23;20285;-82
2022/05/08 04:33:54;;;;;;;;;;;;;;;16.85;52.49;102967.97;6160182;23;19912;-82
2022/05/08 04:36:19;;;;;;;;;;;;;;;16.85;52.21;102970.56;6161391;23;19944;-82
2022/05/08 04:38:45;;;;;;;;;;;;;;;16.86;52.75;102969.75;6161059;23;20245;-82
2022/05/08 04:41:10;;;;;;;;;;;;;;;16.90;52.25;102966.41;6133642;23;19995;-82
2022/05/08 04:43:35;;;;;;;;;;;;;;;16.94;52.23;102977.75;6132914;23;20241;-82
2022/05/08 04:46:00;;;;;;;;;;;;;;;16.96;51.89;102971.78;6158980;23;19913;-82
2022/05/08 04:48:26;;;;;;;;;;;;;;;16.98;51.94;102969.19;6132092;23;19909;-82
2022/05/08 04:50:51;;;;;;;;;;;;;;;17.00;52.01;102973.59;6158428;23;19915;-82
2022/05/08 04:53:16;;;;;;;;;;;;;;;16.96;52.02;102971.78;6158745;23;20044;-84
2022/05/08 04:55:41;;;;;;;;;;;;;;;16.98;51.93;102974.41;6134945;23;19897;-84
2022/05/08 04:58:07;;;;;;;;;;;;;;;17.01;52.14;102974.50;6131812;23;19925;-83
2022/05/08 05:00:32;;;;;;;;;;;;;;;17.06;51.87;102975.50;6131740;23;19995;-82
2022/05/08 05:02:57;;;;;;;;;;;;;;;17.10;51.56;102976.47;6131612;23;19915;-83
2022/05/08 05:05:22;;;;;;;;;;;;;;;17.13;51.46;102979.13;6132086;23;19919;-82
2022/05/08 05:07:48;;;;;;;;;;;;;;;17.20;51.54;102981.03;6131881;23;19919;-82
2022/05/08 05:10:13;;;;;;;;;;;;;;;17.32;51.37;102983.97;6158131;23;19999;-82
2022/05/08 05:12:39;;;;;;;;;;;;;;;17.52;50.81;102981.88;6107410;23;20326;-83
2022/05/08 05:15:05;;;;;;;;;;;;;;;17.77;49.84;102978.16;6160368;23;19913;-85
2022/05/08 05:17:30;;;;;;;;;;;;;;;18.00;49.41;102986.53;6136112;23;20333;-85
2022/05/08 05:19:56;;;;;;;;;;;;;;;18.21;49.52;102983.53;6131866;23;19913;-87
2022/05/08 05:22:21;;;;;;;;;;;;;;;18.37;48.95;102983.84;6131576;23;19920;-86
2022/05/08 05:24:47;;;;;;;;;;;;;;;18.50;48.68;102986.72;6157920;23;19908;-83
2022/05/08 05:27:12;;;;;;;;;;;;;;;18.61;48.69;102994.78;6157999;23;19913;-83
2022/05/08 05:29:37;;;;;;;;;;;;;;;18.75;47.30;102994.19;6131881;23;19913;-82
2022/05/08 05:32:03;;;;;;;;;;;;;;;18.86;47.88;102990.09;6106818;23;19912;-79
2022/05/08 05:34:28;;;;;;;;;;;;;;;18.92;47.98;102998.03;6131535;23;19919;-81
2022/05/08 05:36:53;;;;;;;;;;;;;;;19.15;46.96;103002.81;6131450;23;19912;-80
2022/05/08 05:39:19;;;;;;;;;;;;;;;19.30;46.29;103006.56;6157485;23;19919;-80
2022/05/08 05:41:45;;;;;;;;;;;;;;;19.55;46.58;103003.50;6157377;23;19916;-80
2022/05/08 05:44:10;;;;;;;;;;;;;;;19.63;46.71;103013.22;6157343;23;19919;-80
2022/05/08 05:49:20;;;;;;;;;;;;;;;20.01;44.76;103004.25;6157282;23;19920;-79
2022/05/08 05:51:45;;;;;;;;;;;;;;;20.05;45.12;103004.31;6131327;23;19913;-80
2022/05/08 05:54:10;;;;;;;;;;;;;;;20.22;44.04;103008.91;6131089;23;19912;-80
2022/05/08 05:56:35;;;;;;;;;;;;;;;20.24;44.74;103013.31;6131124;23;19962;-79
2022/05/08 05:59:00;;;;;;;;;;;;;;;20.40;44.07;102997.81;6106357;23;20000;-79
2022/05/08 06:01:26;;;;;;;;;;;;;;;20.52;44.07;103008.44;6157021;23;20285;-79
2022/05/08 06:03:51;;;;;;;;;;;;;;;20.54;42.69;103005.00;6106583;23;19963;-77
2022/05/08 06:06:17;;;;;;;;;;;;;;;20.61;42.60;103016.44;6157224;23;20245;-84
2022/05/08 06:08:42;;;;;;;;;;;;;;;20.75;43.25;103012.25;6107199;23;19991;-81
2022/05/08 06:11:08;;;;;;;;;;;;;;;20.86;42.66;103011.47;6157207;23;19915;-81
2022/05/08 06:13:33;;;;;;;;;;;;;;;20.95;42.16;103015.09;6157275;23;20244;-82
2022/05/08 06:15:58;;;;;;;;;;;;;;;20.99;41.94;103009.88;6131569;23;20218;-81
2022/05/08 06:18:24;;;;;;;;;;;;;;;21.09;41.87;103012.59;6131181;23;20322;-81
2022/05/08 06:20:49;;;;;;;;;;;;;;;21.25;41.62;103016.28;6130860;23;19912;-81
2022/05/08 06:23:15;;;;;;;;;;;;;;;21.28;41.89;103023.28;6157710;23;19936;-83
2022/05/08 06:25:41;;;;;;;;;;;;;;;21.25;40.59;103024.13;6157567;23;20349;-81
2022/05/08 06:28:07;;;;;;;;;;;;;;;21.30;40.09;103026.78;6130903;23;20364;-81
2022/05/08 06:30:32;;;;;;;;;;;;;;;21.51;39.95;103027.03;6157250;23;19917;-82
2022/05/08 06:32:57;;;;;;;;;;;;;;;21.75;40.06;103028.06;6130984;23;19913;-82
2022/05/08 06:35:23;;;;;;;;;;;;;;;21.76;39.40;103032.47;6157282;23;19944;-82
2022/05/08 06:37:48;;;;;;;;;;;;;;;21.81;39.10;103037.72;6106785;23;19917;-81
2022/05/08 06:40:13;;;;;;;;;;;;;;;21.96;39.32;103029.97;6157348;23;20361;-81
2022/05/08 06:42:38;;;;;;;;;;;;;;;22.04;39.06;103035.28;6157504;23;20322;-82
2022/05/08 06:45:04;;;;;;;;;;;;;;;21.92;38.71;103036.94;6131205;23;19923;-82
2022/05/08 06:47:29;;;;;;;;;;;;;;;22.04;38.68;103035.28;6106475;23;20329;-81
2022/05/08 06:49:55;;;;;;;;;;;;;;;22.11;38.46;103039.69;6157257;23;19912;-82
2022/05/08 06:52:20;;;;;;;;;;;;;;;22.23;38.13;103038.91;6107111;23;19913;-82
2022/05/08 06:54:45;;;;;;;;;;;;;;;22.19;38.58;103035.38;6131165;23;19935;-82
2022/05/08 06:57:12;;;;;;;;;;;;;;;22.45;38.30;103043.41;6157248;23;19999;-81
2022/05/08 07:02:21;;;;;;;;;;;;;;;22.30;38.60;103041.59;6161460;23;19959;-82
2022/05/08 07:04:46;;;;;;;;;;;;;;;22.36;38.87;103043.34;6163829;23;19912;-82
2022/05/08 07:07:13;;;;;;;;;;;;;;;22.23;38.92;103039.78;6140874;23;19917;-82
2022/05/08 07:09:38;;;;;;;;;;;;;;;22.39;38.55;103040.75;6142507;23;19913;-82
2022/05/08 07:12:03;;;;;;;;;;;;;;;22.43;38.37;103049.50;6112283;23;20000;-82
2022/05/08 07:14:29;;;;;;;;;;;;;;;22.36;38.11;103048.59;6134748;23;19917;-82
2022/05/08 07:16:54;;;;;;;;;;;;;;;22.26;38.18;103049.44;6134065;23;19912;-82
2022/05/08 07:19:19;;;;;;;;;;;;;;;22.14;38.55;103043.19;6159556;23;19913;-81
2022/05/08 07:21:44;;;;;;;;;;;;;;;22.01;39.26;103054.47;6133199;23;19994;-80
2022/05/08 07:24:10;;;;;;;;;;;;;;;21.95;39.04;103041.34;6132936;23;19916;-79
2022/05/08 07:26:36;;;;;;;;;;;;;;;21.00;42.97;103049.16;6132283;23;19912;-76
2022/05/08 07:29:01;;;;;;;;;;;;;;;20.45;44.08;103048.47;6158695;23;19916;-76
2022/05/08 07:31:27;;;;;;;;;;;;;;;20.30;45.33;103059.59;6159040;23;19908;-79
2022/05/08 07:36:12;;;;;;;;;;;;;;;20.03;52.43;103063.53;6132444;23;19909;-80
2022/05/08 07:36:38;;;;;;;;;;;;;;;19.89;50.29;103070.28;6158410;23;20388;-80
2022/05/08 07:39:03;;;;;;;;;;;;;;;19.91;47.30;103060.75;6132831;23;20214;-82
2022/05/08 07:41:30;;;;;;;;;;;;;;;19.67;50.76;103064.66;6132541;23;19991;-81
2022/05/08 07:43:55;;;;;;;;;;;;;;;19.33;51.14;103068.41;6108395;23;19936;-84
2022/05/08 07:46:20;;;;;;;;;;;;;;;19.00;45.50;103073.84;6132819;23;19913;-83
2022/05/08 07:48:45;;;;;;;;;;;;;;;18.78;44.46;103056.88;6132989;23;19919;-83
2022/05/08 07:51:11;;;;;;;;;;;;;;;18.68;42.95;103061.88;6133286;23;19940;-82
2022/05/08 07:53:36;;;;;;;;;;;;;;;18.56;47.46;103069.44;6158330;23;20249;-81
2022/05/08 07:56:01;;;;;;;;;;;;;;;18.59;43.54;103076.44;6159158;23;19913;-82
2022/05/08 07:58:33;;;;;;;;;;;;;;;18.55;42.02;103072.00;6107680;23;19925;-80
2022/05/08 08:00:58;;;;;;;;;;;;;;;18.51;44.54;103073.69;6132537;23;20016;-80
2022/05/08 08:03:28;;;;;;;;;;;;;;;18.60;43.23;103073.88;6132645;23;19917;-80
2022/05/08 08:05:54;;;;;;;;;;;;;;;18.52;43.11;103074.56;6132439;23;19907;-80
2022/05/08 08:08:25;;;;;;;;;;;;;;;18.50;42.64;103079.72;6132017;23;20289;-80
2022/05/08 08:10:52;;;;;;;;;;;;;;;18.44;41.98;103083.09;6158063;23;19912;-80
2022/05/08 08:13:19;;;;;;;;;;;;;;;18.27;44.45;103085.31;6132077;23;20388;-80
2022/05/08 08:15:45;;;;;;;;;;;;;;;18.21;41.28;103085.16;6132156;23;19920;-80
2022/05/08 08:18:14;;;;;;;;;;;;;;;18.36;40.84;103082.03;6132274;23;19913;-82
2022/05/08 08:20:40;;;;;;;;;;;;;;;18.67;42.29;103069.66;6158300;23;19909;-81
2022/05/08 08:23:05;;;;;;;;;;;;;;;18.85;42.65;103080.50;6132038;23;19913;-81
2022/05/08 08:25:31;;;;;;;;;;;;;;;18.97;42.89;103077.28;6107862;23;20289;-82
2022/05/08 08:27:56;;;;;;;;;;;;;;;19.06;45.15;103077.47;6107632;23;20292;-83
2022/05/08 08:30:22;;;;;;;;;;;;;;;19.14;40.63;103077.63;6157825;23;19915;-81
2022/05/08 08:32:47;;;;;;;;;;;;;;;19.16;41.09;103072.41;6158014;23;19913;-81
2022/05/08 08:35:13;;;;;;;;;;;;;;;19.25;40.13;103077.81;6131986;23;19960;-81
2022/05/08 08:37:38;;;;;;;;;;;;;;;19.27;41.27;103074.41;6132317;23;19919;-82
2022/05/08 08:40:03;;;;;;;;;;;;;;;19.30;41.74;103081.41;6157980;23;20257;-81
2022/05/08 08:42:30;;;;;;;;;;;;;;;19.29;41.75;103071.81;6157694;23;19917;-81
2022/05/08 08:47:46;;;;;;;;;;;;;;;19.27;44.93;103081.34;6157839;23;19920;-80
2022/05/08 08:50:11;;;;;;;;;;;;;;;19.24;42.87;103078.69;6131917;23;19909;-81
2022/05/08 08:52:37;;;;;;;;;;;;;;;19.25;44.21;103086.53;6158100;23;20234;-79
2022/05/08 08:55:05;;;;;;;;;;;;;;;19.27;45.37;103076.13;6131553;23;19913;-79
2022/05/08 08:57:30;;;;;;;;;;;;;;;19.25;44.57;103081.31;6131268;23;19920;-80
2022/05/08 08:59:55;;;;;;;;;;;;;;;19.32;43.88;103074.50;6158162;23;20287;-81
2022/05/08 09:02:21;;;;;;;;;;;;;;;19.31;44.88;103078.84;6131852;23;19924;-83
2022/05/08 09:04:50;;;;;;;;;;;;;;;19.28;44.06;103072.66;6106854;23;19985;-81
2022/05/08 09:07:34;;;;;;;;;;;;;;;19.27;43.19;103078.72;6132074;23;20006;-85
2022/05/08 09:10:10;;;;;;;;;;;;;;;19.23;44.44;103072.59;6131679;23;19945;-81
2022/05/08 09:12:36;;;;;;;;;;;;;;;19.23;44.41;103082.16;6157856;23;19909;-80
2022/05/08 09:15:19;;;;;;;;;;;;;;;19.27;43.15;103070.88;6131513;23;19908;-80
2022/05/08 09:17:46;;;;;;;;;;;;;;;19.29;43.95;103077.03;6157796;23;19909;-81
2022/05/08 09:20:30;;;;;;;;;;;;;;;19.29;43.09;103079.63;6106796;23;19995;-76
2022/05/08 09:23:15;;;;;;;;;;;;;;;19.24;44.27;103087.38;6131388;23;19916;-76
2022/05/08 09:25:43;;;;;;;;;;;;;;;19.22;43.06;103086.47;6131576;23;19912;-78
2022/05/08 09:28:08;;;;;;;;;;;;;;;19.17;40.32;103082.91;6157710;23;19980;-78
2022/05/08 09:30:34;;;;;;;;;;;;;;;19.16;42.23;103078.50;6131572;23;19919;-78
2022/05/08 09:32:59;;;;;;;;;;;;;;;19.16;43.93;103082.88;6131579;23;20377;-77
2022/05/08 09:35:24;;;;;;;;;;;;;;;19.19;42.63;103077.72;6131466;23;19920;-76
2022/05/08 09:37:53;;;;;;;;;;;;;;;19.08;41.65;103086.22;6130850;23;19956;-76
2022/05/08 09:40:19;;;;;;;;;;;;;;;19.09;44.31;103074.91;6157249;23;19920;-76
2022/05/08 09:42:46;;;;;;;;;;;;;;;19.04;41.21;103071.34;6157623;23;19921;-78
2022/05/08 09:45:12;;;;;;;;;;;;;;;18.96;39.84;103072.91;6131608;23;19932;-76
2022/05/08 09:47:42;;;;;;;;;;;;;;;18.92;38.94;103081.50;6131169;23;19909;-76
2022/05/08 09:50:07;;;;;;;;;;;;;;;18.98;40.62;103075.56;6130999;23;19916;-76
2022/05/08 09:52:33;;;;;;;;;;;;;;;18.97;40.70;103085.13;6107575;23;19912;-76
2022/05/08 09:55:01;;;;;;;;;;;;;;;18.78;45.85;103085.59;6131112;23;19917;-77
2022/05/08 09:57:26;;;;;;;;;;;;;;;18.45;45.02;103087.44;6159598;23;19940;-80
2022/05/08 09:59:51;;;;;;;;;;;;;;;18.21;44.86;103074.72;6160263;23;19912;-77
2022/05/08 10:02:17;;;;;;;;;;;;;;;18.17;43.30;103079.84;6132950;23;19967;-79
2022/05/08 10:04:43;;;;;;;;;;;;;;;18.41;41.15;103075.19;6107372;23;19913;-78
2022/05/08 10:07:11;;;;;;;;;;;;;;;18.56;46.65;103072.03;6107143;23;19921;-78
2022/05/08 10:15:18;;;;;;;;;;;;;;;18.44;43.33;103070.06;6157022;23;19936;-78
2022/05/08 10:17:43;;;;;;;;;;;;;;;18.53;45.58;103064.16;6131711;23;19913;-78
2022/05/08 10:20:09;;;;;;;;;;;;;;;18.48;41.89;103074.47;6157091;23;20245;-80
2022/05/08 10:22:48;;;;;;;;;;;;;;;18.37;43.93;103073.34;6157204;23;19980;-80
2022/05/08 10:25:15;;;;;;;;;;;;;;;18.44;45.49;103069.16;6157596;23;19909;-81
2022/05/08 10:27:41;;;;;;;;;;;;;;;18.47;45.09;103072.72;6157351;23;19954;-81
2022/05/08 10:30:06;;;;;;;;;;;;;;;18.40;44.04;103080.34;6157049;23;19912;-81
2022/05/08 10:32:31;;;;;;;;;;;;;;;18.30;44.52;103079.28;6156971;23;19920;-80
2022/05/08 10:35:03;;;;;;;;;;;;;;;18.25;42.93;103079.19;6131040;23;19916;-80
2022/05/08 10:37:28;;;;;;;;;;;;;;;18.35;45.19;103071.56;6156981;23;20392;-79
2022/05/08 10:39:53;;;;;;;;;;;;;;;18.37;42.98;103069.88;6106592;23;19913;-81
2022/05/08 10:42:44;;;;;;;;;;;;;;;18.20;41.05;103074.69;6156945;23;19967;-79
2022/05/08 10:45:29;;;;;;;;;;;;;;;18.29;44.27;103064.47;6130919;23;19987;-79
2022/05/08 10:47:55;;;;;;;;;;;;;;;18.21;45.92;103064.31;6148159;23;20313;-79
2022/05/08 10:50:20;;;;;;;;;;;;;;;18.24;45.49;103060.88;6132714;23;19909;-79
2022/05/08 10:52:46;;;;;;;;;;;;;;;18.23;45.21;103060.03;6133368;23;19933;-79
2022/05/08 10:55:14;;;;;;;;;;;;;;;18.27;43.19;103056.63;6159472;23;19995;-81
2022/05/08 10:57:40;;;;;;;;;;;;;;;18.25;44.89;103060.06;6159450;23;19988;-82
2022/05/08 11:00:05;;;;;;;;;;;;;;;18.28;45.01;103057.50;6133654;23;19913;-83
2022/05/08 11:02:41;;;;;;;;;;;;;;;18.19;43.17;103067.72;6133228;23;19916;-83
2022/05/08 11:05:07;;;;;;;;;;;;;;;18.31;44.06;103060.19;6159823;23;19931;-83
2022/05/08 11:07:32;;;;;;;;;;;;;;;18.38;45.18;103058.59;6159721;23;19921;-81
2022/05/08 11:09:58;;;;;;;;;;;;;;;18.45;45.26;103060.50;6133132;23;19935;-80
2022/05/08 11:12:24;;;;;;;;;;;;;;;18.36;43.26;103060.31;6158919;23;20238;-78
2022/05/08 11:14:49;;;;;;;;;;;;;;;18.24;44.28;103055.69;6132821;23;19912;-77
2022/05/08 11:17:15;;;;;;;;;;;;;;;18.41;44.74;103049.13;6158751;23;19967;-78
2022/05/08 11:19:53;;;;;;;;;;;;;;;18.47;44.95;103053.59;6158584;23;19913;-77
2022/05/08 11:22:18;;;;;;;;;;;;;;;18.39;44.14;103053.41;6132356;23;19913;-78
2022/05/08 11:24:47;;;;;;;;;;;;;;;18.40;45.01;103051.69;6158781;23;19920;-78
2022/05/08 11:27:13;;;;;;;;;;;;;;;18.39;45.08;103053.41;6158584;23;19909;-77
2022/05/08 11:29:38;;;;;;;;;;;;;;;18.39;44.00;103039.50;6132345;23;19912;-78
2022/05/08 11:38:00;;;;;;;;;;;;;;;18.47;43.39;103048.38;6159152;23;20345;-78
2022/05/08 11:40:26;;;;;;;;;;;;;;;18.53;45.22;103038.09;6132379;23;19933;-78
2022/05/08 11:42:51;;;;;;;;;;;;;;;18.42;44.91;103042.16;6132513;23;20293;-77
2022/05/08 11:45:17;;;;;;;;;;;;;;;18.35;43.35;103041.16;6132318;23;19913;-78
2022/05/08 11:47:48;;;;;;;;;;;;;;;18.34;43.94;103044.63;6159030;23;19972;-78
2022/05/08 11:50:14;;;;;;;;;;;;;;;18.30;40.89;103038.44;6158348;23;19964;-81
2022/05/08 11:52:39;;;;;;;;;;;;;;;18.43;45.00;103031.78;6132424;23;19908;-78
2022/05/08 11:55:04;;;;;;;;;;;;;;;18.47;43.75;103031.00;6132131;23;19908;-78
2022/05/08 11:57:39;;;;;;;;;;;;;;;18.40;42.86;103029.13;6131223;23;19923;-79
2022/05/08 12:00:06;;;;;;;;;;;;;;;18.45;46.85;103024.88;6132292;23;19913;-80
2022/05/08 12:02:41;;;;;;;;;;;;;;;18.42;40.94;103030.03;6132167;23;19912;-81
2022/05/08 12:05:15;;;;;;;;;;;;;;;18.41;44.15;103027.38;6132175;23;19936;-80
2022/05/08 12:07:41;;;;;;;;;;;;;;;18.39;41.80;103029.09;6132070;23;19916;-81
2022/05/08 12:10:07;;;;;;;;;;;;;;;18.44;43.71;103019.63;6132252;23;20334;-79
2022/05/08 12:12:33;;;;;;;;;;;;;;;18.49;42.85;103026.72;6158344;23;19952;-80
2022/05/08 12:14:59;;;;;;;;;;;;;;;18.54;43.90;103025.94;6132441;23;19908;-78
2022/05/08 12:17:25;;;;;;;;;;;;;;;18.62;43.08;103017.41;6107801;23;19912;-77
2022/05/08 12:19:51;;;;;;;;;;;;;;;18.63;45.23;103016.56;6132148;23;19919;-77
2022/05/08 12:22:17;;;;;;;;;;;;;;;18.69;44.41;103027.13;6131826;23;19948;-77
2022/05/08 12:24:43;;;;;;;;;;;;;;;18.76;43.75;103025.53;6132027;23;19913;-77
2022/05/08 12:27:08;;;;;;;;;;;;;;;18.67;42.84;103023.59;6158322;23;19983;-77
2022/05/08 12:29:33;;;;;;;;;;;;;;;18.68;46.25;103022.78;6158045;23;19979;-77
2022/05/08 12:31:59;;;;;;;;;;;;;;;18.77;47.78;103015.97;6131962;23;19952;-78
2022/05/08 12:34:24;;;;;;;;;;;;;;;18.73;45.23;103024.56;6157985;23;20385;-76
2022/05/08 12:36:50;;;;;;;;;;;;;;;18.76;45.00;103020.31;6131827;23;19923;-76
2022/05/08 12:39:17;;;;;;;;;;;;;;;18.70;43.76;103020.16;6157916;23;19916;-77
2022/05/08 12:41:42;;;;;;;;;;;;;;;18.88;47.88;103017.97;6158165;23;19920;-78
2022/05/08 12:44:07;;;;;;;;;;;;;;;18.81;45.93;103017.81;6107236;23;19913;-77
2022/05/08 12:46:34;;;;;;;;;;;;;;;18.74;44.39;103010.69;6157716;23;19988;-77
2022/05/08 12:49:02;;;;;;;;;;;;;;;18.75;46.07;103015.03;6157927;23;19908;-77
2022/05/08 12:51:32;;;;;;;;;;;;;;;18.75;45.88;103008.13;6157664;23;20344;-76
2022/05/08 12:53:57;;;;;;;;;;;;;;;18.81;46.10;103005.66;6131975;23;19908;-76
2022/05/08 12:56:23;;;;;;;;;;;;;;;18.80;44.88;103000.41;6131823;23;20313;-78
2022/05/08 13:01:33;;;;;;;;;;;;;;;18.79;44.87;103004.75;6157555;23;20002;-77
2022/05/08 13:03:59;;;;;;;;;;;;;;;18.76;44.20;103006.38;6157758;23;19913;-78